sensor_id;sensor_type;location;lat;lon;timestamp;temperature;humidity
63648;DHT22;49792;48.744;9.176;2023-04-03T00:00:45;17.60;61.40
63648;DHT22;49792;48.744;9.176;2023-04-03T00:03:10;17.70;61.00
63648;DHT22;49792;48.744;9.176;2023-04-03T00:05:36;17.50;61.00
63648;DHT22;49792;48.744;9.176;2023-04-03T00:08:02;17.50;61.50
63648;DHT22;49792;48.744;9.176;2023-04-03T00:10:27;17.50;61.50
63648;DHT22;49792;48.744;9.176;2023-04-03T00:12:53;17.50;61.40
63648;DHT22;49792;48.744;9.176;2023-04-03T00:15:18;17.50;61.20
63648;DHT22;49792;48.744;9.176;2023-04-03T00:17:44;17.50;61.30
63648;DHT22;49792;48.744;9.176;2023-04-03T00:20:10;17.50;61.30
63648;DHT22;49792;48.744;9.176;2023-04-03T00:22:36;17.50;61.30
63648;DHT22;49792;48.744;9.176;2023-04-03T00:25:02;17.50;61.20
63648;DHT22;49792;48.744;9.176;2023-04-03T00:27:27;17.50;61.40
63648;DHT22;49792;48.744;9.176;2023-04-03T00:29:53;17.50;61.30
63648;DHT22;49792;48.744;9.176;2023-04-03T00:32:18;17.50;61.40
63648;DHT22;49792;48.744;9.176;2023-04-03T00:34:44;17.50;61.30
63648;DHT22;49792;48.744;9.176;2023-04-03T00:37:09;17.40;61.40
63648;DHT22;49792;48.744;9.176;2023-04-03T00:39:35;17.40;61.30
63648;DHT22;49792;48.744;9.176;2023-04-03T00:42:00;17.50;61.30
63648;DHT22;49792;48.744;9.176;2023-04-03T00:47:01;17.40;61.40
63648;DHT22;49792;48.744;9.176;2023-04-03T00:49:26;17.40;61.40
63648;DHT22;49792;48.744;9.176;2023-04-03T00:51:52;17.40;61.10
63648;DHT22;49792;48.744;9.176;2023-04-03T00:54:18;17.40;61.20
63648;DHT22;49792;48.744;9.176;2023-04-03T00:56:44;17.40;61.60
63648;DHT22;49792;48.744;9.176;2023-04-03T00:59:11;17.40;61.80
63648;DHT22;49792;48.744;9.176;2023-04-03T01:01:36;17.40;61.90
63648;DHT22;49792;48.744;9.176;2023-04-03T01:04:02;17.40;62.00
63648;DHT22;49792;48.744;9.176;2023-04-03T01:06:29;17.40;62.00
63648;DHT22;49792;48.744;9.176;2023-04-03T01:08:57;17.40;62.00
63648;DHT22;49792;48.744;9.176;2023-04-03T01:11:23;17.40;62.10
63648;DHT22;49792;48.744;9.176;2023-04-03T01:13:48;17.30;62.20
63648;DHT22;49792;48.744;9.176;2023-04-03T01:16:14;17.40;62.10
63648;DHT22;49792;48.744;9.176;2023-04-03T01:18:40;17.40;62.10
63648;DHT22;49792;48.744;9.176;2023-04-03T01:21:13;17.40;62.20
63648;DHT22;49792;48.744;9.176;2023-04-03T01:23:50;17.40;62.10
63648;DHT22;49792;48.744;9.176;2023-04-03T01:26:17;17.40;62.30
63648;DHT22;49792;48.744;9.176;2023-04-03T01:28:43;17.30;62.10
63648;DHT22;49792;48.744;9.176;2023-04-03T01:31:18;17.40;61.90
63648;DHT22;49792;48.744;9.176;2023-04-03T01:33:45;17.40;62.00
63648;DHT22;49792;48.744;9.176;2023-04-03T01:36:13;17.40;62.00
63648;DHT22;49792;48.744;9.176;2023-04-03T01:38:39;17.40;61.80
63648;DHT22;49792;48.744;9.176;2023-04-03T01:41:05;17.30;61.80
63648;DHT22;49792;48.744;9.176;2023-04-03T01:43:30;17.30;61.90
63648;DHT22;49792;48.744;9.176;2023-04-03T01:45:56;17.40;61.90
63648;DHT22;49792;48.744;9.176;2023-04-03T01:48:21;17.30;62.00
63648;DHT22;49792;48.744;9.176;2023-04-03T01:50:47;17.30;62.00
63648;DHT22;49792;48.744;9.176;2023-04-03T01:53:12;17.40;61.80
63648;DHT22;49792;48.744;9.176;2023-04-03T01:55:38;17.40;61.80
63648;DHT22;49792;48.744;9.176;2023-04-03T01:58:03;17.30;61.70
63648;DHT22;49792;48.744;9.176;2023-04-03T02:00:29;17.40;61.80
63648;DHT22;49792;48.744;9.176;2023-04-03T02:02:55;17.30;61.50
63648;DHT22;49792;48.744;9.176;2023-04-03T02:05:20;17.30;61.70
63648;DHT22;49792;48.744;9.176;2023-04-03T02:07:46;17.30;61.70
63648;DHT22;49792;48.744;9.176;2023-04-03T02:10:12;17.30;61.90
63648;DHT22;49792;48.744;9.176;2023-04-03T02:12:37;17.30;61.70
63648;DHT22;49792;48.744;9.176;2023-04-03T02:15:03;17.20;61.80
63648;DHT22;49792;48.744;9.176;2023-04-03T02:17:29;17.30;61.80
63648;DHT22;49792;48.744;9.176;2023-04-03T02:19:54;17.30;61.60
63648;DHT22;49792;48.744;9.176;2023-04-03T02:22:20;17.30;61.70
63648;DHT22;49792;48.744;9.176;2023-04-03T02:24:45;17.30;61.70
63648;DHT22;49792;48.744;9.176;2023-04-03T02:27:11;17.20;61.70
63648;DHT22;49792;48.744;9.176;2023-04-03T02:29:36;17.20;61.70
63648;DHT22;49792;48.744;9.176;2023-04-03T02:32:02;17.30;61.80
63648;DHT22;49792;48.744;9.176;2023-04-03T02:34:27;17.20;61.70
63648;DHT22;49792;48.744;9.176;2023-04-03T02:36:53;17.30;61.60
63648;DHT22;49792;48.744;9.176;2023-04-03T02:39:18;17.20;61.80
63648;DHT22;49792;48.744;9.176;2023-04-03T02:41:44;17.40;62.00
63648;DHT22;49792;48.744;9.176;2023-04-03T02:44:10;17.20;61.90
63648;DHT22;49792;48.744;9.176;2023-04-03T02:46:35;17.20;62.00
63648;DHT22;49792;48.744;9.176;2023-04-03T02:49:01;17.20;62.00
63648;DHT22;49792;48.744;9.176;2023-04-03T02:51:27;17.20;62.10
63648;DHT22;49792;48.744;9.176;2023-04-03T02:53:52;17.10;62.00
63648;DHT22;49792;48.744;9.176;2023-04-03T02:56:18;17.20;61.90
63648;DHT22;49792;48.744;9.176;2023-04-03T02:58:44;17.20;61.90
63648;DHT22;49792;48.744;9.176;2023-04-03T03:01:10;17.20;61.90
63648;DHT22;49792;48.744;9.176;2023-04-03T03:03:36;17.20;61.80
63648;DHT22;49792;48.744;9.176;2023-04-03T03:06:02;17.10;61.60
63648;DHT22;49792;48.744;9.176;2023-04-03T03:08:28;17.20;61.50
63648;DHT22;49792;48.744;9.176;2023-04-03T03:10:56;17.30;61.60
63648;DHT22;49792;48.744;9.176;2023-04-03T03:13:21;17.20;61.50
63648;DHT22;49792;48.744;9.176;2023-04-03T03:15:47;17.20;61.50
63648;DHT22;49792;48.744;9.176;2023-04-03T03:18:12;17.20;61.40
63648;DHT22;49792;48.744;9.176;2023-04-03T03:20:38;17.10;61.20
63648;DHT22;49792;48.744;9.176;2023-04-03T03:23:03;17.00;61.30
63648;DHT22;49792;48.744;9.176;2023-04-03T03:25:29;17.20;61.10
63648;DHT22;49792;48.744;9.176;2023-04-03T03:27:55;17.20;61.30
63648;DHT22;49792;48.744;9.176;2023-04-03T03:30:20;17.10;61.20
63648;DHT22;49792;48.744;9.176;2023-04-03T03:32:46;17.10;61.40
63648;DHT22;49792;48.744;9.176;2023-04-03T03:35:11;17.10;61.30
63648;DHT22;49792;48.744;9.176;2023-04-03T03:37:37;17.10;61.20
63648;DHT22;49792;48.744;9.176;2023-04-03T03:40:02;17.10;61.10
63648;DHT22;49792;48.744;9.176;2023-04-03T03:42:28;17.10;61.10
63648;DHT22;49792;48.744;9.176;2023-04-03T03:44:53;17.10;61.10
63648;DHT22;49792;48.744;9.176;2023-04-03T03:47:18;17.10;61.10
63648;DHT22;49792;48.744;9.176;2023-04-03T03:49:44;17.10;61.10
63648;DHT22;49792;48.744;9.176;2023-04-03T03:52:09;17.10;61.10
63648;DHT22;49792;48.744;9.176;2023-04-03T03:54:36;17.10;61.30
63648;DHT22;49792;48.744;9.176;2023-04-03T03:57:01;17.00;61.00
63648;DHT22;49792;48.744;9.176;2023-04-03T03:59:27;17.10;61.00
63648;DHT22;49792;48.744;9.176;2023-04-03T04:01:52;17.20;61.30
63648;DHT22;49792;48.744;9.176;2023-04-03T04:04:18;17.10;61.20
63648;DHT22;49792;48.744;9.176;2023-04-03T04:06:43;17.10;61.20
63648;DHT22;49792;48.744;9.176;2023-04-03T04:09:09;17.10;61.10
63648;DHT22;49792;48.744;9.176;2023-04-03T04:11:34;17.10;61.20
63648;DHT22;49792;48.744;9.176;2023-04-03T04:14:00;17.10;61.30
63648;DHT22;49792;48.744;9.176;2023-04-03T04:16:25;17.10;61.30
63648;DHT22;49792;48.744;9.176;2023-04-03T04:18:51;17.10;61.30
63648;DHT22;49792;48.744;9.176;2023-04-03T04:21:16;17.10;61.40
63648;DHT22;49792;48.744;9.176;2023-04-03T04:23:42;17.10;61.30
63648;DHT22;49792;48.744;9.176;2023-04-03T04:26:07;17.20;61.40
63648;DHT22;49792;48.744;9.176;2023-04-03T04:28:33;17.10;61.30
63648;DHT22;49792;48.744;9.176;2023-04-03T04:30:58;17.10;61.20
63648;DHT22;49792;48.744;9.176;2023-04-03T04:33:24;17.10;61.30
63648;DHT22;49792;48.744;9.176;2023-04-03T04:35:49;17.00;61.20
63648;DHT22;49792;48.744;9.176;2023-04-03T04:38:15;17.20;61.20
63648;DHT22;49792;48.744;9.176;2023-04-03T04:40:40;17.30;60.50
63648;DHT22;49792;48.744;9.176;2023-04-03T04:43:06;17.50;60.50
63648;DHT22;49792;48.744;9.176;2023-04-03T04:45:32;17.50;61.20
63648;DHT22;49792;48.744;9.176;2023-04-03T04:47:57;17.60;61.80
63648;DHT22;49792;48.744;9.176;2023-04-03T04:50:23;17.50;61.80
63648;DHT22;49792;48.744;9.176;2023-04-03T04:52:48;17.60;61.20
63648;DHT22;49792;48.744;9.176;2023-04-03T04:55:14;17.60;61.40
63648;DHT22;49792;48.744;9.176;2023-04-03T04:57:39;17.60;62.20
63648;DHT22;49792;48.744;9.176;2023-04-03T05:00:05;17.60;62.30
63648;DHT22;49792;48.744;9.176;2023-04-03T05:02:31;17.60;62.80
63648;DHT22;49792;48.744;9.176;2023-04-03T05:04:56;17.50;62.40
63648;DHT22;49792;48.744;9.176;2023-04-03T05:07:22;17.50;62.60
63648;DHT22;49792;48.744;9.176;2023-04-03T05:09:47;17.50;62.60
63648;DHT22;49792;48.744;9.176;2023-04-03T05:12:13;17.50;62.30
63648;DHT22;49792;48.744;9.176;2023-04-03T05:14:38;17.50;62.10
63648;DHT22;49792;48.744;9.176;2023-04-03T05:17:04;17.50;61.90
63648;DHT22;49792;48.744;9.176;2023-04-03T05:19:29;17.50;62.10
63648;DHT22;49792;48.744;9.176;2023-04-03T05:21:55;17.50;62.10
63648;DHT22;49792;48.744;9.176;2023-04-03T05:24:20;17.40;61.80
63648;DHT22;49792;48.744;9.176;2023-04-03T05:26:46;17.50;62.00
63648;DHT22;49792;48.744;9.176;2023-04-03T05:29:11;17.50;61.80
63648;DHT22;49792;48.744;9.176;2023-04-03T05:31:37;17.50;61.60
63648;DHT22;49792;48.744;9.176;2023-04-03T05:34:03;17.50;61.30
63648;DHT22;49792;48.744;9.176;2023-04-03T05:36:28;17.50;61.20
63648;DHT22;49792;48.744;9.176;2023-04-03T05:38:53;17.50;61.20
63648;DHT22;49792;48.744;9.176;2023-04-03T05:41:21;17.50;61.00
63648;DHT22;49792;48.744;9.176;2023-04-03T05:43:50;17.50;61.10
63648;DHT22;49792;48.744;9.176;2023-04-03T05:46:16;17.50;61.10
63648;DHT22;49792;48.744;9.176;2023-04-03T05:48:42;17.50;60.90
63648;DHT22;49792;48.744;9.176;2023-04-03T05:51:09;17.50;60.90
63648;DHT22;49792;48.744;9.176;2023-04-03T05:53:38;17.50;60.90
63648;DHT22;49792;48.744;9.176;2023-04-03T05:56:04;17.60;60.90
63648;DHT22;49792;48.744;9.176;2023-04-03T05:58:29;17.50;60.90
63648;DHT22;49792;48.744;9.176;2023-04-03T06:00:55;17.50;60.90
63648;DHT22;49792;48.744;9.176;2023-04-03T06:03:20;17.50;61.70
63648;DHT22;49792;48.744;9.176;2023-04-03T06:05:46;17.60;60.80
63648;DHT22;49792;48.744;9.176;2023-04-03T06:08:12;17.60;60.70
63648;DHT22;49792;48.744;9.176;2023-04-03T06:10:38;17.60;60.50
63648;DHT22;49792;48.744;9.176;2023-04-03T06:13:06;17.60;60.40
63648;DHT22;49792;48.744;9.176;2023-04-03T06:15:32;17.50;60.40
63648;DHT22;49792;48.744;9.176;2023-04-03T06:17:57;17.60;60.40
63648;DHT22;49792;48.744;9.176;2023-04-03T06:20:23;17.60;60.30
63648;DHT22;49792;48.744;9.176;2023-04-03T06:22:49;17.60;60.20
63648;DHT22;49792;48.744;9.176;2023-04-03T06:25:16;17.60;60.30
63648;DHT22;49792;48.744;9.176;2023-04-03T06:27:44;17.60;60.20
63648;DHT22;49792;48.744;9.176;2023-04-03T06:30:09;17.50;60.10
63648;DHT22;49792;48.744;9.176;2023-04-03T06:32:36;17.60;60.20
63648;DHT22;49792;48.744;9.176;2023-04-03T06:35:01;17.60;60.10
63648;DHT22;49792;48.744;9.176;2023-04-03T06:37:27;17.60;60.00
63648;DHT22;49792;48.744;9.176;2023-04-03T06:39:54;17.60;60.00
63648;DHT22;49792;48.744;9.176;2023-04-03T06:42:20;17.60;60.00
63648;DHT22;49792;48.744;9.176;2023-04-03T06:44:45;17.60;59.90
63648;DHT22;49792;48.744;9.176;2023-04-03T06:47:14;17.60;60.00
63648;DHT22;49792;48.744;9.176;2023-04-03T06:49:40;17.60;60.00
63648;DHT22;49792;48.744;9.176;2023-04-03T06:52:06;17.60;60.00
63648;DHT22;49792;48.744;9.176;2023-04-03T06:54:32;17.60;60.00
63648;DHT22;49792;48.744;9.176;2023-04-03T06:56:57;17.60;59.80
63648;DHT22;49792;48.744;9.176;2023-04-03T06:59:23;17.60;59.70
63648;DHT22;49792;48.744;9.176;2023-04-03T07:01:48;17.50;59.70
63648;DHT22;49792;48.744;9.176;2023-04-03T07:04:14;17.60;59.70
63648;DHT22;49792;48.744;9.176;2023-04-03T07:06:40;17.60;59.60
63648;DHT22;49792;48.744;9.176;2023-04-03T07:09:07;17.60;59.50
63648;DHT22;49792;48.744;9.176;2023-04-03T07:11:32;17.60;59.50
63648;DHT22;49792;48.744;9.176;2023-04-03T07:13:58;17.60;59.50
63648;DHT22;49792;48.744;9.176;2023-04-03T07:16:24;17.60;59.50
63648;DHT22;49792;48.744;9.176;2023-04-03T07:18:49;17.60;60.40
63648;DHT22;49792;48.744;9.176;2023-04-03T07:21:15;17.60;59.50
63648;DHT22;49792;48.744;9.176;2023-04-03T07:23:40;17.60;59.40
63648;DHT22;49792;48.744;9.176;2023-04-03T07:26:06;17.60;59.40
63648;DHT22;49792;48.744;9.176;2023-04-03T07:28:33;17.60;59.40
63648;DHT22;49792;48.744;9.176;2023-04-03T07:31:00;17.60;59.50
63648;DHT22;49792;48.744;9.176;2023-04-03T07:33:25;17.70;59.50
63648;DHT22;49792;48.744;9.176;2023-04-03T07:35:51;17.70;59.40
63648;DHT22;49792;48.744;9.176;2023-04-03T07:38:16;17.70;59.30
63648;DHT22;49792;48.744;9.176;2023-04-03T07:40:47;17.70;59.40
63648;DHT22;49792;48.744;9.176;2023-04-03T07:43:13;17.70;59.30
63648;DHT22;49792;48.744;9.176;2023-04-03T07:45:38;17.70;59.10
63648;DHT22;49792;48.744;9.176;2023-04-03T07:48:04;17.70;59.10
63648;DHT22;49792;48.744;9.176;2023-04-03T07:50:29;17.70;59.20
63648;DHT22;49792;48.744;9.176;2023-04-03T07:52:56;17.70;59.00
63648;DHT22;49792;48.744;9.176;2023-04-03T07:55:23;17.70;59.00
63648;DHT22;49792;48.744;9.176;2023-04-03T07:57:48;17.70;59.00
63648;DHT22;49792;48.744;9.176;2023-04-03T08:00:14;17.80;59.30
63648;DHT22;49792;48.744;9.176;2023-04-03T08:02:40;17.80;59.20
63648;DHT22;49792;48.744;9.176;2023-04-03T08:05:05;17.70;59.10
63648;DHT22;49792;48.744;9.176;2023-04-03T08:07:31;17.80;59.00
63648;DHT22;49792;48.744;9.176;2023-04-03T08:09:56;17.70;58.70
63648;DHT22;49792;48.744;9.176;2023-04-03T08:12:22;17.80;59.00
63648;DHT22;49792;48.744;9.176;2023-04-03T08:14:47;17.90;59.10
63648;DHT22;49792;48.744;9.176;2023-04-03T08:17:13;18.00;59.40
63648;DHT22;49792;48.744;9.176;2023-04-03T08:19:39;17.90;59.30
63648;DHT22;49792;48.744;9.176;2023-04-03T08:22:05;17.90;59.20
63648;DHT22;49792;48.744;9.176;2023-04-03T08:24:32;17.90;60.00
63648;DHT22;49792;48.744;9.176;2023-04-03T08:26:57;17.90;59.60
63648;DHT22;49792;48.744;9.176;2023-04-03T08:29:23;17.90;59.40
63648;DHT22;49792;48.744;9.176;2023-04-03T08:31:49;17.90;59.50
63648;DHT22;49792;48.744;9.176;2023-04-03T08:34:15;17.80;59.20
63648;DHT22;49792;48.744;9.176;2023-04-03T08:36:41;17.80;59.40
63648;DHT22;49792;48.744;9.176;2023-04-03T08:39:07;17.80;59.20
63648;DHT22;49792;48.744;9.176;2023-04-03T08:41:34;17.80;59.40
63648;DHT22;49792;48.744;9.176;2023-04-03T08:46:47;17.80;59.40
63648;DHT22;49792;48.744;9.176;2023-04-03T08:49:28;17.70;59.00
63648;DHT22;49792;48.744;9.176;2023-04-03T08:51:54;17.70;59.00
63648;DHT22;49792;48.744;9.176;2023-04-03T08:54:28;17.70;59.20
63648;DHT22;49792;48.744;9.176;2023-04-03T08:56:55;17.80;59.30
63648;DHT22;49792;48.744;9.176;2023-04-03T08:59:24;17.70;59.10
63648;DHT22;49792;48.744;9.176;2023-04-03T09:01:51;17.90;59.20
63648;DHT22;49792;48.744;9.176;2023-04-03T09:04:17;17.80;59.00
63648;DHT22;49792;48.744;9.176;2023-04-03T09:06:45;17.70;58.90
63648;DHT22;49792;48.744;9.176;2023-04-03T09:09:24;17.70;58.80
63648;DHT22;49792;48.744;9.176;2023-04-03T09:14:41;17.70;58.80
63648;DHT22;49792;48.744;9.176;2023-04-03T09:19:36;17.80;58.80
63648;DHT22;49792;48.744;9.176;2023-04-03T09:22:11;17.70;58.70
63648;DHT22;49792;48.744;9.176;2023-04-03T09:24:39;17.70;58.70
63648;DHT22;49792;48.744;9.176;2023-04-03T09:27:06;17.70;58.80
63648;DHT22;49792;48.744;9.176;2023-04-03T09:29:33;17.70;58.90
63648;DHT22;49792;48.744;9.176;2023-04-03T09:32:02;17.70;58.90
63648;DHT22;49792;48.744;9.176;2023-04-03T09:34:37;17.70;58.80
63648;DHT22;49792;48.744;9.176;2023-04-03T09:37:07;17.70;58.70
63648;DHT22;49792;48.744;9.176;2023-04-03T09:39:52;17.70;58.60
63648;DHT22;49792;48.744;9.176;2023-04-03T09:42:22;17.70;58.30
63648;DHT22;49792;48.744;9.176;2023-04-03T09:47:24;17.80;57.80
63648;DHT22;49792;48.744;9.176;2023-04-03T09:49:49;17.80;57.50
63648;DHT22;49792;48.744;9.176;2023-04-03T09:52:25;17.90;57.30
63648;DHT22;49792;48.744;9.176;2023-04-03T09:54:50;17.90;57.20
63648;DHT22;49792;48.744;9.176;2023-04-03T09:57:16;18.00;59.30
63648;DHT22;49792;48.744;9.176;2023-04-03T10:00:01;18.00;60.00
63648;DHT22;49792;48.744;9.176;2023-04-03T10:02:39;17.80;59.70
63648;DHT22;49792;48.744;9.176;2023-04-03T10:05:25;17.70;59.40
63648;DHT22;49792;48.744;9.176;2023-04-03T10:07:50;17.10;46.70
63648;DHT22;49792;48.744;9.176;2023-04-03T10:12:43;16.70;54.90
63648;DHT22;49792;48.744;9.176;2023-04-03T10:15:12;17.00;54.30
63648;DHT22;49792;48.744;9.176;2023-04-03T10:17:50;17.30;53.60
63648;DHT22;49792;48.744;9.176;2023-04-03T10:25:30;17.70;54.90
63648;DHT22;49792;48.744;9.176;2023-04-03T10:28:01;17.70;55.20
63648;DHT22;49792;48.744;9.176;2023-04-03T10:32:54;17.80;57.70
63648;DHT22;49792;48.744;9.176;2023-04-03T10:38:04;18.10;69.50
63648;DHT22;49792;48.744;9.176;2023-04-03T11:01:36;18.00;71.40
63648;DHT22;49792;48.744;9.176;2023-04-03T11:04:03;18.00;68.50
63648;DHT22;49792;48.744;9.176;2023-04-03T11:06:34;18.00;69.50
63648;DHT22;49792;48.744;9.176;2023-04-03T11:09:22;18.00;69.30
63648;DHT22;49792;48.744;9.176;2023-04-03T11:11:50;18.00;69.40
63648;DHT22;49792;48.744;9.176;2023-04-03T11:14:27;17.90;68.80
63648;DHT22;49792;48.744;9.176;2023-04-03T11:17:01;17.90;68.50
63648;DHT22;49792;48.744;9.176;2023-04-03T11:19:41;17.90;68.20
63648;DHT22;49792;48.744;9.176;2023-04-03T11:24:36;17.90;67.20
63648;DHT22;49792;48.744;9.176;2023-04-03T11:27:03;17.90;67.00
63648;DHT22;49792;48.744;9.176;2023-04-03T11:29:36;17.90;66.50
63648;DHT22;49792;48.744;9.176;2023-04-03T11:34:49;17.90;65.90
63648;DHT22;49792;48.744;9.176;2023-04-03T11:37:35;17.90;65.70
63648;DHT22;49792;48.744;9.176;2023-04-03T11:42:46;17.90;64.90
63648;DHT22;49792;48.744;9.176;2023-04-03T11:47:54;17.90;64.40
63648;DHT22;49792;48.744;9.176;2023-04-03T11:58:11;17.90;64.20
63648;DHT22;49792;48.744;9.176;2023-04-03T12:00:58;17.90;63.10
63648;DHT22;49792;48.744;9.176;2023-04-03T12:08:28;17.90;62.10
63648;DHT22;49792;48.744;9.176;2023-04-03T12:13:36;17.90;61.50
63648;DHT22;49792;48.744;9.176;2023-04-03T12:16:02;17.90;61.10
63648;DHT22;49792;48.744;9.176;2023-04-03T12:20:57;17.90;61.00
63648;DHT22;49792;48.744;9.176;2023-04-03T12:23:28;17.90;60.90
63648;DHT22;49792;48.744;9.176;2023-04-03T12:25:59;17.90;60.90
63648;DHT22;49792;48.744;9.176;2023-04-03T12:28:25;17.90;60.60
63648;DHT22;49792;48.744;9.176;2023-04-03T12:30:51;17.90;60.60
63648;DHT22;49792;48.744;9.176;2023-04-03T12:33:27;17.80;60.40
63648;DHT22;49792;48.744;9.176;2023-04-03T12:36:05;17.80;60.20
63648;DHT22;49792;48.744;9.176;2023-04-03T12:38:45;17.90;59.90
63648;DHT22;49792;48.744;9.176;2023-04-03T12:41:21;17.90;59.80
63648;DHT22;49792;48.744;9.176;2023-04-03T12:46:23;17.80;60.20
63648;DHT22;49792;48.744;9.176;2023-04-03T12:48:56;17.80;60.20
63648;DHT22;49792;48.744;9.176;2023-04-03T12:53:49;17.80;60.10
63648;DHT22;49792;48.744;9.176;2023-04-03T12:56:33;17.80;60.00
63648;DHT22;49792;48.744;9.176;2023-04-03T12:59:16;17.80;59.90
63648;DHT22;49792;48.744;9.176;2023-04-03T13:01:43;18.00;59.90
63648;DHT22;49792;48.744;9.176;2023-04-03T13:04:10;18.30;59.70
63648;DHT22;49792;48.744;9.176;2023-04-03T13:06:40;18.40;59.60
63648;DHT22;49792;48.744;9.176;2023-04-03T13:09:14;18.40;61.40
63648;DHT22;49792;48.744;9.176;2023-04-03T13:11:43;18.30;61.40
63648;DHT22;49792;48.744;9.176;2023-04-03T13:14:20;18.20;61.20
63648;DHT22;49792;48.744;9.176;2023-04-03T13:16:53;18.10;60.60
63648;DHT22;49792;48.744;9.176;2023-04-03T13:19:20;18.10;59.80
63648;DHT22;49792;48.744;9.176;2023-04-03T13:21:47;18.20;59.20
63648;DHT22;49792;48.744;9.176;2023-04-03T13:24:12;18.20;58.70
63648;DHT22;49792;48.744;9.176;2023-04-03T13:26:38;18.20;58.20
63648;DHT22;49792;48.744;9.176;2023-04-03T13:29:05;18.20;58.00
63648;DHT22;49792;48.744;9.176;2023-04-03T13:31:33;18.20;57.80
63648;DHT22;49792;48.744;9.176;2023-04-03T13:34:19;18.30;58.10
63648;DHT22;49792;48.744;9.176;2023-04-03T13:36:55;18.40;57.90
63648;DHT22;49792;48.744;9.176;2023-04-03T13:39:26;18.40;57.70
63648;DHT22;49792;48.744;9.176;2023-04-03T13:41:53;18.40;57.10
63648;DHT22;49792;48.744;9.176;2023-04-03T13:46:51;18.30;56.40
63648;DHT22;49792;48.744;9.176;2023-04-03T13:49:36;18.30;56.30
63648;DHT22;49792;48.744;9.176;2023-04-03T13:54:46;18.40;55.90
63648;DHT22;49792;48.744;9.176;2023-04-03T13:57:13;18.40;55.90
63648;DHT22;49792;48.744;9.176;2023-04-03T13:59:38;18.40;55.70
63648;DHT22;49792;48.744;9.176;2023-04-03T14:04:31;18.40;55.20
63648;DHT22;49792;48.744;9.176;2023-04-03T14:06:57;18.40;55.50
63648;DHT22;49792;48.744;9.176;2023-04-03T14:09:24;18.40;55.40
63648;DHT22;49792;48.744;9.176;2023-04-03T14:11:52;18.40;55.30
63648;DHT22;49792;48.744;9.176;2023-04-03T14:14:24;18.50;55.40
63648;DHT22;49792;48.744;9.176;2023-04-03T14:16:51;18.50;55.20
63648;DHT22;49792;48.744;9.176;2023-04-03T14:19:28;18.40;55.10
63648;DHT22;49792;48.744;9.176;2023-04-03T14:21:54;18.40;54.80
63648;DHT22;49792;48.744;9.176;2023-04-03T14:24:21;18.40;54.80
63648;DHT22;49792;48.744;9.176;2023-04-03T14:26:47;18.40;55.10
63648;DHT22;49792;48.744;9.176;2023-04-03T14:29:13;18.40;54.80
63648;DHT22;49792;48.744;9.176;2023-04-03T14:31:39;18.30;54.70
63648;DHT22;49792;48.744;9.176;2023-04-03T14:34:05;18.40;54.70
63648;DHT22;49792;48.744;9.176;2023-04-03T14:36:31;18.50;54.70
63648;DHT22;49792;48.744;9.176;2023-04-03T14:38:57;18.50;54.80
63648;DHT22;49792;48.744;9.176;2023-04-03T14:41:24;18.40;55.10
63648;DHT22;49792;48.744;9.176;2023-04-03T14:43:51;18.40;55.20
63648;DHT22;49792;48.744;9.176;2023-04-03T14:46:17;18.50;55.20
63648;DHT22;49792;48.744;9.176;2023-04-03T14:48:43;18.50;55.20
63648;DHT22;49792;48.744;9.176;2023-04-03T14:51:10;18.60;55.50
63648;DHT22;49792;48.744;9.176;2023-04-03T14:53:36;18.60;55.40
63648;DHT22;49792;48.744;9.176;2023-04-03T14:56:02;18.60;55.80
63648;DHT22;49792;48.744;9.176;2023-04-03T14:58:27;18.60;55.80
63648;DHT22;49792;48.744;9.176;2023-04-03T15:00:54;18.50;56.10
63648;DHT22;49792;48.744;9.176;2023-04-03T15:03:20;18.20;56.70
63648;DHT22;49792;48.744;9.176;2023-04-03T15:05:47;18.00;56.90
63648;DHT22;49792;48.744;9.176;2023-04-03T15:08:20;17.80;56.30
63648;DHT22;49792;48.744;9.176;2023-04-03T15:10:46;17.70;56.00
63648;DHT22;49792;48.744;9.176;2023-04-03T15:13:12;17.70;55.20
63648;DHT22;49792;48.744;9.176;2023-04-03T15:15:38;17.70;56.10
63648;DHT22;49792;48.744;9.176;2023-04-03T15:18:04;17.90;54.50
63648;DHT22;49792;48.744;9.176;2023-04-03T15:20:30;18.10;55.20
63648;DHT22;49792;48.744;9.176;2023-04-03T15:22:58;18.40;55.50
63648;DHT22;49792;48.744;9.176;2023-04-03T15:25:26;18.40;55.10
63648;DHT22;49792;48.744;9.176;2023-04-03T15:27:52;18.40;55.10
63648;DHT22;49792;48.744;9.176;2023-04-03T15:30:18;18.30;55.20
63648;DHT22;49792;48.744;9.176;2023-04-03T15:32:44;18.30;55.20
63648;DHT22;49792;48.744;9.176;2023-04-03T15:35:09;18.30;54.90
63648;DHT22;49792;48.744;9.176;2023-04-03T15:37:35;18.40;54.90
63648;DHT22;49792;48.744;9.176;2023-04-03T15:40:00;18.30;55.40
63648;DHT22;49792;48.744;9.176;2023-04-03T15:42:26;18.30;54.70
63648;DHT22;49792;48.744;9.176;2023-04-03T15:44:51;18.20;54.70
63648;DHT22;49792;48.744;9.176;2023-04-03T15:47:17;18.30;54.80
63648;DHT22;49792;48.744;9.176;2023-04-03T15:49:43;18.30;54.70
63648;DHT22;49792;48.744;9.176;2023-04-03T15:52:08;18.30;54.60
63648;DHT22;49792;48.744;9.176;2023-04-03T15:54:34;18.40;54.50
63648;DHT22;49792;48.744;9.176;2023-04-03T15:56:59;18.40;54.20
63648;DHT22;49792;48.744;9.176;2023-04-03T15:59:25;18.40;54.10
63648;DHT22;49792;48.744;9.176;2023-04-03T16:01:50;18.50;53.90
63648;DHT22;49792;48.744;9.176;2023-04-03T16:04:16;18.50;53.80
63648;DHT22;49792;48.744;9.176;2023-04-03T16:06:42;18.50;53.80
63648;DHT22;49792;48.744;9.176;2023-04-03T16:09:08;18.40;53.70
63648;DHT22;49792;48.744;9.176;2023-04-03T16:11:34;18.40;53.80
63648;DHT22;49792;48.744;9.176;2023-04-03T16:14:02;18.40;53.70
63648;DHT22;49792;48.744;9.176;2023-04-03T16:16:27;18.40;53.40
63648;DHT22;49792;48.744;9.176;2023-04-03T16:18:54;18.40;53.10
63648;DHT22;49792;48.744;9.176;2023-04-03T16:21:19;18.40;53.40
63648;DHT22;49792;48.744;9.176;2023-04-03T16:23:45;18.40;53.40
63648;DHT22;49792;48.744;9.176;2023-04-03T16:26:11;18.40;53.30
63648;DHT22;49792;48.744;9.176;2023-04-03T16:28:37;18.40;53.50
63648;DHT22;49792;48.744;9.176;2023-04-03T16:31:02;18.40;53.70
63648;DHT22;49792;48.744;9.176;2023-04-03T16:33:28;18.40;53.90
63648;DHT22;49792;48.744;9.176;2023-04-03T16:35:54;18.40;54.90
63648;DHT22;49792;48.744;9.176;2023-04-03T16:38:19;18.40;53.90
63648;DHT22;49792;48.744;9.176;2023-04-03T16:40:47;18.40;54.20
63648;DHT22;49792;48.744;9.176;2023-04-03T16:43:14;18.40;53.90
63648;DHT22;49792;48.744;9.176;2023-04-03T16:45:40;18.40;54.20
63648;DHT22;49792;48.744;9.176;2023-04-03T16:48:05;18.40;54.10
63648;DHT22;49792;48.744;9.176;2023-04-03T16:50:31;18.40;54.20
63648;DHT22;49792;48.744;9.176;2023-04-03T16:52:56;18.40;54.00
63648;DHT22;49792;48.744;9.176;2023-04-03T16:55:22;18.30;53.90
63648;DHT22;49792;48.744;9.176;2023-04-03T16:57:47;18.40;54.00